sensor_id;sensor_type;location;lat;lon;timestamp;P1;durP1;ratioP1;P2;durP2;ratioP2
21611;SDS011;47005;52.292;13.452;2024-01-06T00:01:21;38.77;;;20.50;;
21611;SDS011;47005;52.292;13.452;2024-01-06T00:03:47;46.97;;;24.53;;
21611;SDS011;47005;52.292;13.452;2024-01-06T00:06:13;42.50;;;22.93;;
21611;SDS011;47005;52.292;13.452;2024-01-06T00:08:39;45.97;;;21.47;;
21611;SDS011;47005;52.292;13.452;2024-01-06T00:11:05;43.03;;;22.03;;
21611;SDS011;47005;52.292;13.452;2024-01-06T00:13:30;34.17;;;19.67;;
21611;SDS011;47005;52.292;13.452;2024-01-06T00:15:56;36.73;;;21.63;;
21611;SDS011;47005;52.292;13.452;2024-01-06T00:18:22;51.00;;;24.33;;
21611;SDS011;47005;52.292;13.452;2024-01-06T00:20:47;42.90;;;23.13;;
21611;SDS011;47005;52.292;13.452;2024-01-06T00:23:13;40.37;;;22.53;;
21611;SDS011;47005;52.292;13.452;2024-01-06T00:25:39;39.53;;;23.17;;
21611;SDS011;47005;52.292;13.452;2024-01-06T00:28:04;46.13;;;23.07;;
21611;SDS011;47005;52.292;13.452;2024-01-06T00:30:30;38.17;;;22.53;;
21611;SDS011;47005;52.292;13.452;2024-01-06T00:32:56;38.60;;;21.20;;
21611;SDS011;47005;52.292;13.452;2024-01-06T00:35:21;40.17;;;21.73;;
21611;SDS011;47005;52.292;13.452;2024-01-06T00:37:47;36.80;;;22.20;;
21611;SDS011;47005;52.292;13.452;2024-01-06T00:40:12;45.77;;;22.83;;
21611;SDS011;47005;52.292;13.452;2024-01-06T00:42:38;44.13;;;25.33;;
21611;SDS011;47005;52.292;13.452;2024-01-06T00:45:04;47.67;;;24.53;;
21611;SDS011;47005;52.292;13.452;2024-01-06T00:47:30;45.57;;;22.73;;
21611;SDS011;47005;52.292;13.452;2024-01-06T00:49:56;46.43;;;25.00;;
21611;SDS011;47005;52.292;13.452;2024-01-06T00:52:22;37.37;;;20.10;;
21611;SDS011;47005;52.292;13.452;2024-01-06T00:54:47;43.40;;;20.80;;
21611;SDS011;47005;52.292;13.452;2024-01-06T00:57:13;44.67;;;22.93;;
21611;SDS011;47005;52.292;13.452;2024-01-06T00:59:38;41.97;;;24.10;;
21611;SDS011;47005;52.292;13.452;2024-01-06T01:02:04;49.93;;;24.23;;
21611;SDS011;47005;52.292;13.452;2024-01-06T01:04:30;50.90;;;24.97;;
21611;SDS011;47005;52.292;13.452;2024-01-06T01:06:55;38.33;;;21.80;;
21611;SDS011;47005;52.292;13.452;2024-01-06T01:09:21;39.57;;;21.97;;
21611;SDS011;47005;52.292;13.452;2024-01-06T01:11:46;43.00;;;22.00;;
21611;SDS011;47005;52.292;13.452;2024-01-06T01:14:12;52.37;;;25.87;;
21611;SDS011;47005;52.292;13.452;2024-01-06T01:16:38;38.33;;;22.13;;
21611;SDS011;47005;52.292;13.452;2024-01-06T01:19:03;41.33;;;22.63;;
21611;SDS011;47005;52.292;13.452;2024-01-06T01:21:29;38.27;;;20.63;;
21611;SDS011;47005;52.292;13.452;2024-01-06T01:23:55;41.73;;;22.10;;
21611;SDS011;47005;52.292;13.452;2024-01-06T01:26:20;46.23;;;22.33;;
21611;SDS011;47005;52.292;13.452;2024-01-06T01:28:46;32.57;;;18.70;;
21611;SDS011;47005;52.292;13.452;2024-01-06T01:31:12;48.47;;;23.40;;
21611;SDS011;47005;52.292;13.452;2024-01-06T01:33:38;38.30;;;21.07;;
21611;SDS011;47005;52.292;13.452;2024-01-06T01:36:04;43.73;;;21.20;;
21611;SDS011;47005;52.292;13.452;2024-01-06T01:38:29;44.90;;;21.87;;
21611;SDS011;47005;52.292;13.452;2024-01-06T01:40:55;42.50;;;22.27;;
21611;SDS011;47005;52.292;13.452;2024-01-06T01:43:21;45.20;;;21.67;;
21611;SDS011;47005;52.292;13.452;2024-01-06T01:45:49;45.27;;;20.07;;
21611;SDS011;47005;52.292;13.452;2024-01-06T01:48:18;45.67;;;21.93;;
21611;SDS011;47005;52.292;13.452;2024-01-06T01:50:48;41.07;;;19.70;;
21611;SDS011;47005;52.292;13.452;2024-01-06T01:53:14;43.70;;;19.50;;
21611;SDS011;47005;52.292;13.452;2024-01-06T01:55:42;36.60;;;19.47;;
21611;SDS011;47005;52.292;13.452;2024-01-06T01:58:10;34.90;;;20.03;;
21611;SDS011;47005;52.292;13.452;2024-01-06T02:00:38;33.00;;;18.03;;
21611;SDS011;47005;52.292;13.452;2024-01-06T02:03:04;34.93;;;17.40;;
21611;SDS011;47005;52.292;13.452;2024-01-06T02:05:30;36.03;;;19.60;;
21611;SDS011;47005;52.292;13.452;2024-01-06T02:07:56;30.23;;;17.13;;
21611;SDS011;47005;52.292;13.452;2024-01-06T02:10:21;33.87;;;18.83;;
21611;SDS011;47005;52.292;13.452;2024-01-06T02:12:48;35.60;;;17.80;;
21611;SDS011;47005;52.292;13.452;2024-01-06T02:15:14;32.60;;;19.27;;
21611;SDS011;47005;52.292;13.452;2024-01-06T02:17:39;37.00;;;19.17;;
21611;SDS011;47005;52.292;13.452;2024-01-06T02:20:06;34.50;;;18.63;;
21611;SDS011;47005;52.292;13.452;2024-01-06T02:22:34;39.03;;;18.57;;
21611;SDS011;47005;52.292;13.452;2024-01-06T02:25:01;34.07;;;17.73;;
21611;SDS011;47005;52.292;13.452;2024-01-06T02:27:27;34.93;;;17.13;;
21611;SDS011;47005;52.292;13.452;2024-01-06T02:29:53;44.73;;;20.73;;
21611;SDS011;47005;52.292;13.452;2024-01-06T02:32:19;39.50;;;18.10;;
21611;SDS011;47005;52.292;13.452;2024-01-06T02:34:44;35.37;;;17.97;;
21611;SDS011;47005;52.292;13.452;2024-01-06T02:37:10;33.33;;;17.67;;
21611;SDS011;47005;52.292;13.452;2024-01-06T02:39:35;34.67;;;19.67;;
21611;SDS011;47005;52.292;13.452;2024-01-06T02:42:01;32.73;;;17.70;;
21611;SDS011;47005;52.292;13.452;2024-01-06T02:44:27;40.13;;;18.57;;
21611;SDS011;47005;52.292;13.452;2024-01-06T02:46:52;33.83;;;18.40;;
21611;SDS011;47005;52.292;13.452;2024-01-06T02:49:19;38.50;;;19.03;;
21611;SDS011;47005;52.292;13.452;2024-01-06T02:51:44;40.23;;;18.60;;
21611;SDS011;47005;52.292;13.452;2024-01-06T02:54:10;32.87;;;20.13;;
21611;SDS011;47005;52.292;13.452;2024-01-06T02:56:36;39.80;;;20.60;;
21611;SDS011;47005;52.292;13.452;2024-01-06T02:59:03;41.17;;;19.57;;
21611;SDS011;47005;52.292;13.452;2024-01-06T03:01:28;35.73;;;19.87;;
21611;SDS011;47005;52.292;13.452;2024-01-06T03:03:54;36.80;;;19.27;;
21611;SDS011;47005;52.292;13.452;2024-01-06T03:06:20;46.13;;;20.20;;
21611;SDS011;47005;52.292;13.452;2024-01-06T03:08:45;37.20;;;20.53;;
21611;SDS011;47005;52.292;13.452;2024-01-06T03:11:11;43.00;;;20.40;;
21611;SDS011;47005;52.292;13.452;2024-01-06T03:13:36;41.13;;;20.53;;
21611;SDS011;47005;52.292;13.452;2024-01-06T03:16:05;37.30;;;20.30;;
21611;SDS011;47005;52.292;13.452;2024-01-06T03:18:31;34.63;;;18.67;;
21611;SDS011;47005;52.292;13.452;2024-01-06T03:20:56;45.03;;;22.63;;
21611;SDS011;47005;52.292;13.452;2024-01-06T03:23:22;37.20;;;18.70;;
21611;SDS011;47005;52.292;13.452;2024-01-06T03:25:47;47.97;;;22.07;;
21611;SDS011;47005;52.292;13.452;2024-01-06T03:28:13;43.77;;;21.20;;
21611;SDS011;47005;52.292;13.452;2024-01-06T03:30:39;34.73;;;21.00;;
21611;SDS011;47005;52.292;13.452;2024-01-06T03:33:05;39.10;;;20.27;;
21611;SDS011;47005;52.292;13.452;2024-01-06T03:35:31;42.60;;;21.07;;
21611;SDS011;47005;52.292;13.452;2024-01-06T03:37:57;35.87;;;18.37;;
21611;SDS011;47005;52.292;13.452;2024-01-06T03:40:23;34.90;;;18.73;;
21611;SDS011;47005;52.292;13.452;2024-01-06T03:42:48;38.13;;;20.30;;
21611;SDS011;47005;52.292;13.452;2024-01-06T03:45:14;39.17;;;20.60;;
21611;SDS011;47005;52.292;13.452;2024-01-06T03:47:40;39.03;;;18.33;;
21611;SDS011;47005;52.292;13.452;2024-01-06T03:50:05;37.57;;;19.17;;
21611;SDS011;47005;52.292;13.452;2024-01-06T03:52:31;34.47;;;18.10;;
21611;SDS011;47005;52.292;13.452;2024-01-06T03:54:57;46.13;;;21.93;;
21611;SDS011;47005;52.292;13.452;2024-01-06T03:57:22;47.50;;;22.97;;
21611;SDS011;47005;52.292;13.452;2024-01-06T03:59:48;41.07;;;20.83;;
21611;SDS011;47005;52.292;13.452;2024-01-06T04:02:13;44.03;;;21.83;;
21611;SDS011;47005;52.292;13.452;2024-01-06T04:04:39;47.40;;;19.80;;
21611;SDS011;47005;52.292;13.452;2024-01-06T04:07:05;44.50;;;22.80;;
21611;SDS011;47005;52.292;13.452;2024-01-06T04:09:31;43.80;;;22.00;;
21611;SDS011;47005;52.292;13.452;2024-01-06T04:11:57;46.30;;;20.60;;
21611;SDS011;47005;52.292;13.452;2024-01-06T04:14:23;43.23;;;21.73;;
21611;SDS011;47005;52.292;13.452;2024-01-06T04:16:48;39.17;;;20.73;;
21611;SDS011;47005;52.292;13.452;2024-01-06T04:19:14;37.40;;;20.00;;
21611;SDS011;47005;52.292;13.452;2024-01-06T04:21:40;40.67;;;20.80;;
21611;SDS011;47005;52.292;13.452;2024-01-06T04:24:05;37.57;;;19.93;;
21611;SDS011;47005;52.292;13.452;2024-01-06T04:26:31;43.30;;;21.87;;
21611;SDS011;47005;52.292;13.452;2024-01-06T04:28:57;41.17;;;21.40;;
21611;SDS011;47005;52.292;13.452;2024-01-06T04:31:22;38.83;;;21.00;;
21611;SDS011;47005;52.292;13.452;2024-01-06T04:33:48;41.13;;;20.27;;
21611;SDS011;47005;52.292;13.452;2024-01-06T04:36:14;38.80;;;21.23;;
21611;SDS011;47005;52.292;13.452;2024-01-06T04:38:39;38.60;;;20.40;;
21611;SDS011;47005;52.292;13.452;2024-01-06T04:41:05;46.83;;;20.10;;
21611;SDS011;47005;52.292;13.452;2024-01-06T04:43:31;41.27;;;21.13;;
21611;SDS011;47005;52.292;13.452;2024-01-06T04:45:56;40.57;;;19.43;;
21611;SDS011;47005;52.292;13.452;2024-01-06T04:48:23;36.83;;;17.20;;
21611;SDS011;47005;52.292;13.452;2024-01-06T04:50:48;41.57;;;18.67;;
21611;SDS011;47005;52.292;13.452;2024-01-06T04:53:14;45.20;;;20.70;;
21611;SDS011;47005;52.292;13.452;2024-01-06T04:55:40;39.90;;;21.03;;
21611;SDS011;47005;52.292;13.452;2024-01-06T04:58:05;32.13;;;14.63;;
21611;SDS011;47005;52.292;13.452;2024-01-06T05:00:31;40.03;;;20.67;;
21611;SDS011;47005;52.292;13.452;2024-01-06T05:02:57;40.50;;;21.00;;
21611;SDS011;47005;52.292;13.452;2024-01-06T05:05:23;41.87;;;19.60;;
21611;SDS011;47005;52.292;13.452;2024-01-06T05:07:48;38.90;;;20.03;;
21611;SDS011;47005;52.292;13.452;2024-01-06T05:10:14;14.70;;;8.63;;
21611;SDS011;47005;52.292;13.452;2024-01-06T05:12:40;46.40;;;21.70;;
21611;SDS011;47005;52.292;13.452;2024-01-06T05:15:05;45.43;;;21.80;;
21611;SDS011;47005;52.292;13.452;2024-01-06T05:17:31;41.73;;;19.30;;
21611;SDS011;47005;52.292;13.452;2024-01-06T05:19:57;49.70;;;21.50;;
21611;SDS011;47005;52.292;13.452;2024-01-06T05:22:23;43.33;;;21.23;;
21611;SDS011;47005;52.292;13.452;2024-01-06T05:24:48;42.00;;;21.20;;
21611;SDS011;47005;52.292;13.452;2024-01-06T05:27:18;47.57;;;23.80;;
21611;SDS011;47005;52.292;13.452;2024-01-06T05:29:44;36.33;;;19.30;;
21611;SDS011;47005;52.292;13.452;2024-01-06T05:32:09;33.10;;;19.10;;
21611;SDS011;47005;52.292;13.452;2024-01-06T05:34:35;42.20;;;18.00;;
21611;SDS011;47005;52.292;13.452;2024-01-06T05:37:00;40.37;;;17.80;;
21611;SDS011;47005;52.292;13.452;2024-01-06T05:39:26;43.50;;;21.60;;
21611;SDS011;47005;52.292;13.452;2024-01-06T05:41:52;39.23;;;20.37;;
21611;SDS011;47005;52.292;13.452;2024-01-06T05:44:18;40.37;;;20.53;;
21611;SDS011;47005;52.292;13.452;2024-01-06T05:46:43;38.27;;;20.53;;
21611;SDS011;47005;52.292;13.452;2024-01-06T05:49:09;38.80;;;20.27;;
21611;SDS011;47005;52.292;13.452;2024-01-06T05:51:35;37.37;;;19.70;;
21611;SDS011;47005;52.292;13.452;2024-01-06T05:54:01;38.47;;;16.40;;
21611;SDS011;47005;52.292;13.452;2024-01-06T05:56:27;44.47;;;20.47;;
21611;SDS011;47005;52.292;13.452;2024-01-06T05:58:55;36.80;;;18.23;;
21611;SDS011;47005;52.292;13.452;2024-01-06T06:01:21;39.53;;;20.00;;
21611;SDS011;47005;52.292;13.452;2024-01-06T06:03:47;40.30;;;19.33;;
21611;SDS011;47005;52.292;13.452;2024-01-06T06:06:13;41.33;;;19.37;;
21611;SDS011;47005;52.292;13.452;2024-01-06T06:08:44;47.80;;;22.93;;
21611;SDS011;47005;52.292;13.452;2024-01-06T06:11:10;43.93;;;21.83;;
21611;SDS011;47005;52.292;13.452;2024-01-06T06:13:39;36.20;;;19.37;;
21611;SDS011;47005;52.292;13.452;2024-01-06T06:16:06;39.27;;;19.50;;
21611;SDS011;47005;52.292;13.452;2024-01-06T06:18:32;45.67;;;21.80;;
21611;SDS011;47005;52.292;13.452;2024-01-06T06:20:58;38.67;;;18.63;;
21611;SDS011;47005;52.292;13.452;2024-01-06T06:23:24;40.30;;;19.83;;
21611;SDS011;47005;52.292;13.452;2024-01-06T06:25:51;39.90;;;20.13;;
21611;SDS011;47005;52.292;13.452;2024-01-06T06:28:17;36.67;;;19.00;;
21611;SDS011;47005;52.292;13.452;2024-01-06T06:30:43;38.30;;;16.87;;
21611;SDS011;47005;52.292;13.452;2024-01-06T06:33:08;38.47;;;19.53;;
21611;SDS011;47005;52.292;13.452;2024-01-06T06:35:34;43.90;;;20.90;;
21611;SDS011;47005;52.292;13.452;2024-01-06T06:38:00;43.47;;;21.47;;
21611;SDS011;47005;52.292;13.452;2024-01-06T06:40:26;36.30;;;19.03;;
21611;SDS011;47005;52.292;13.452;2024-01-06T06:42:52;35.47;;;18.80;;
21611;SDS011;47005;52.292;13.452;2024-01-06T06:45:18;44.93;;;20.67;;
21611;SDS011;47005;52.292;13.452;2024-01-06T06:47:47;42.27;;;20.50;;
21611;SDS011;47005;52.292;13.452;2024-01-06T06:50:19;37.10;;;18.13;;
21611;SDS011;47005;52.292;13.452;2024-01-06T06:52:46;33.97;;;18.53;;
21611;SDS011;47005;52.292;13.452;2024-01-06T06:55:12;45.30;;;19.53;;
21611;SDS011;47005;52.292;13.452;2024-01-06T06:57:38;32.63;;;18.97;;
21611;SDS011;47005;52.292;13.452;2024-01-06T07:00:04;40.53;;;19.90;;
21611;SDS011;47005;52.292;13.452;2024-01-06T07:02:32;41.53;;;21.43;;
21611;SDS011;47005;52.292;13.452;2024-01-06T07:04:59;45.87;;;19.73;;
21611;SDS011;47005;52.292;13.452;2024-01-06T07:07:24;42.57;;;18.43;;
21611;SDS011;47005;52.292;13.452;2024-01-06T07:09:50;49.00;;;21.87;;
21611;SDS011;47005;52.292;13.452;2024-01-06T07:12:16;45.60;;;21.10;;
21611;SDS011;47005;52.292;13.452;2024-01-06T07:14:41;42.53;;;20.10;;
21611;SDS011;47005;52.292;13.452;2024-01-06T07:17:07;44.43;;;19.13;;
21611;SDS011;47005;52.292;13.452;2024-01-06T07:19:34;39.27;;;20.47;;
21611;SDS011;47005;52.292;13.452;2024-01-06T07:21:59;38.23;;;20.13;;
21611;SDS011;47005;52.292;13.452;2024-01-06T07:24:25;50.27;;;21.93;;
21611;SDS011;47005;52.292;13.452;2024-01-06T07:26:51;37.87;;;18.93;;
21611;SDS011;47005;52.292;13.452;2024-01-06T07:29:17;40.67;;;21.47;;
21611;SDS011;47005;52.292;13.452;2024-01-06T07:31:43;41.77;;;20.87;;
21611;SDS011;47005;52.292;13.452;2024-01-06T07:34:09;48.37;;;22.60;;
21611;SDS011;47005;52.292;13.452;2024-01-06T07:36:35;43.60;;;20.53;;
21611;SDS011;47005;52.292;13.452;2024-01-06T07:39:00;46.23;;;21.13;;
21611;SDS011;47005;52.292;13.452;2024-01-06T07:41:27;46.00;;;23.33;;
21611;SDS011;47005;52.292;13.452;2024-01-06T07:43:55;39.13;;;20.67;;
21611;SDS011;47005;52.292;13.452;2024-01-06T07:46:21;42.90;;;20.80;;
21611;SDS011;47005;52.292;13.452;2024-01-06T07:48:47;35.10;;;19.40;;
21611;SDS011;47005;52.292;13.452;2024-01-06T07:51:12;39.83;;;20.43;;
21611;SDS011;47005;52.292;13.452;2024-01-06T07:53:38;45.43;;;23.30;;
21611;SDS011;47005;52.292;13.452;2024-01-06T07:56:04;37.33;;;21.47;;
21611;SDS011;47005;52.292;13.452;2024-01-06T07:58:29;42.83;;;20.33;;
21611;SDS011;47005;52.292;13.452;2024-01-06T08:00:55;36.60;;;21.50;;
21611;SDS011;47005;52.292;13.452;2024-01-06T08:03:21;50.33;;;20.87;;
21611;SDS011;47005;52.292;13.452;2024-01-06T08:05:46;40.00;;;19.63;;
21611;SDS011;47005;52.292;13.452;2024-01-06T08:08:12;45.93;;;20.27;;
21611;SDS011;47005;52.292;13.452;2024-01-06T08:10:41;48.60;;;22.70;;
21611;SDS011;47005;52.292;13.452;2024-01-06T08:13:07;38.63;;;20.80;;
21611;SDS011;47005;52.292;13.452;2024-01-06T08:15:33;42.97;;;21.43;;
21611;SDS011;47005;52.292;13.452;2024-01-06T08:17:59;45.77;;;20.57;;
21611;SDS011;47005;52.292;13.452;2024-01-06T08:20:24;43.67;;;20.23;;
21611;SDS011;47005;52.292;13.452;2024-01-06T08:22:50;45.87;;;20.20;;
21611;SDS011;47005;52.292;13.452;2024-01-06T08:25:16;42.27;;;20.40;;
21611;SDS011;47005;52.292;13.452;2024-01-06T08:27:42;37.50;;;18.60;;
21611;SDS011;47005;52.292;13.452;2024-01-06T08:30:08;45.43;;;19.97;;
21611;SDS011;47005;52.292;13.452;2024-01-06T08:32:34;36.20;;;18.80;;
21611;SDS011;47005;52.292;13.452;2024-01-06T08:35:00;44.43;;;19.30;;
21611;SDS011;47005;52.292;13.452;2024-01-06T08:37:26;44.20;;;17.03;;
21611;SDS011;47005;52.292;13.452;2024-01-06T08:39:51;41.70;;;20.37;;
21611;SDS011;47005;52.292;13.452;2024-01-06T08:42:17;45.70;;;21.20;;
21611;SDS011;47005;52.292;13.452;2024-01-06T08:44:43;36.20;;;18.27;;
21611;SDS011;47005;52.292;13.452;2024-01-06T08:47:08;41.03;;;19.70;;
21611;SDS011;47005;52.292;13.452;2024-01-06T08:49:34;36.03;;;17.53;;
21611;SDS011;47005;52.292;13.452;2024-01-06T08:52:00;42.03;;;19.03;;
21611;SDS011;47005;52.292;13.452;2024-01-06T08:54:26;42.83;;;21.00;;
21611;SDS011;47005;52.292;13.452;2024-01-06T08:56:51;38.43;;;18.87;;
21611;SDS011;47005;52.292;13.452;2024-01-06T08:59:17;44.50;;;20.37;;
21611;SDS011;47005;52.292;13.452;2024-01-06T09:01:42;39.90;;;18.40;;
21611;SDS011;47005;52.292;13.452;2024-01-06T09:04:08;33.20;;;17.33;;
21611;SDS011;47005;52.292;13.452;2024-01-06T09:06:36;45.27;;;19.73;;
21611;SDS011;47005;52.292;13.452;2024-01-06T09:09:02;48.43;;;18.57;;
21611;SDS011;47005;52.292;13.452;2024-01-06T09:11:27;50.47;;;20.77;;
21611;SDS011;47005;52.292;13.452;2024-01-06T09:13:53;41.60;;;20.50;;
21611;SDS011;47005;52.292;13.452;2024-01-06T09:16:19;45.57;;;18.63;;
21611;SDS011;47005;52.292;13.452;2024-01-06T09:18:44;32.20;;;16.17;;
21611;SDS011;47005;52.292;13.452;2024-01-06T09:21:10;39.77;;;19.43;;
21611;SDS011;47005;52.292;13.452;2024-01-06T09:23:36;40.00;;;20.30;;
21611;SDS011;47005;52.292;13.452;2024-01-06T09:26:01;44.53;;;18.23;;
21611;SDS011;47005;52.292;13.452;2024-01-06T09:28:30;42.30;;;18.93;;
21611;SDS011;47005;52.292;13.452;2024-01-06T09:30:55;33.60;;;18.10;;
21611;SDS011;47005;52.292;13.452;2024-01-06T09:33:24;47.10;;;18.77;;
21611;SDS011;47005;52.292;13.452;2024-01-06T09:35:50;34.47;;;16.77;;
21611;SDS011;47005;52.292;13.452;2024-01-06T09:38:15;36.40;;;17.67;;
21611;SDS011;47005;52.292;13.452;2024-01-06T09:40:43;39.40;;;18.70;;
21611;SDS011;47005;52.292;13.452;2024-01-06T09:43:09;41.73;;;15.03;;
21611;SDS011;47005;52.292;13.452;2024-01-06T09:45:36;42.40;;;16.27;;
21611;SDS011;47005;52.292;13.452;2024-01-06T09:48:04;36.00;;;16.73;;
21611;SDS011;47005;52.292;13.452;2024-01-06T09:50:41;38.87;;;14.83;;
21611;SDS011;47005;52.292;13.452;2024-01-06T09:53:10;44.40;;;17.37;;
21611;SDS011;47005;52.292;13.452;2024-01-06T09:55:36;34.10;;;17.13;;
21611;SDS011;47005;52.292;13.452;2024-01-06T09:58:03;38.67;;;17.67;;
21611;SDS011;47005;52.292;13.452;2024-01-06T10:00:30;29.63;;;14.53;;
21611;SDS011;47005;52.292;13.452;2024-01-06T10:02:55;38.80;;;16.63;;
21611;SDS011;47005;52.292;13.452;2024-01-06T10:05:21;33.97;;;16.47;;
21611;SDS011;47005;52.292;13.452;2024-01-06T10:07:47;38.43;;;17.33;;
21611;SDS011;47005;52.292;13.452;2024-01-06T10:10:13;36.40;;;16.00;;
21611;SDS011;47005;52.292;13.452;2024-01-06T10:12:40;37.67;;;16.33;;
21611;SDS011;47005;52.292;13.452;2024-01-06T10:15:08;30.10;;;15.63;;
21611;SDS011;47005;52.292;13.452;2024-01-06T10:17:39;35.97;;;17.43;;
21611;SDS011;47005;52.292;13.452;2024-01-06T10:20:06;36.40;;;17.10;;
21611;SDS011;47005;52.292;13.452;2024-01-06T10:22:36;28.50;;;12.73;;
21611;SDS011;47005;52.292;13.452;2024-01-06T10:25:07;35.33;;;17.03;;
21611;SDS011;47005;52.292;13.452;2024-01-06T10:27:36;30.47;;;16.20;;
21611;SDS011;47005;52.292;13.452;2024-01-06T10:30:03;34.83;;;15.73;;
21611;SDS011;47005;52.292;13.452;2024-01-06T10:32:32;41.77;;;16.57;;
21611;SDS011;47005;52.292;13.452;2024-01-06T10:34:59;38.30;;;16.83;;
21611;SDS011;47005;52.292;13.452;2024-01-06T10:37:28;37.33;;;17.00;;
21611;SDS011;47005;52.292;13.452;2024-01-06T10:40:11;31.43;;;15.40;;
21611;SDS011;47005;52.292;13.452;2024-01-06T10:42:39;25.97;;;10.63;;
21611;SDS011;47005;52.292;13.452;2024-01-06T10:45:07;35.23;;;16.27;;
21611;SDS011;47005;52.292;13.452;2024-01-06T10:47:37;35.53;;;16.47;;
21611;SDS011;47005;52.292;13.452;2024-01-06T10:50:04;32.23;;;16.00;;
21611;SDS011;47005;52.292;13.452;2024-01-06T10:52:30;30.10;;;14.23;;
21611;SDS011;47005;52.292;13.452;2024-01-06T10:54:56;31.30;;;15.47;;
21611;SDS011;47005;52.292;13.452;2024-01-06T10:57:23;32.03;;;15.87;;
21611;SDS011;47005;52.292;13.452;2024-01-06T10:59:50;38.03;;;17.67;;
21611;SDS011;47005;52.292;13.452;2024-01-06T11:02:16;34.97;;;15.67;;
21611;SDS011;47005;52.292;13.452;2024-01-06T11:04:46;39.80;;;16.30;;
21611;SDS011;47005;52.292;13.452;2024-01-06T11:07:16;40.97;;;19.63;;
21611;SDS011;47005;52.292;13.452;2024-01-06T11:09:49;40.10;;;17.13;;
21611;SDS011;47005;52.292;13.452;2024-01-06T11:12:18;34.27;;;16.00;;
21611;SDS011;47005;52.292;13.452;2024-01-06T11:14:44;36.50;;;15.87;;
21611;SDS011;47005;52.292;13.452;2024-01-06T11:17:11;32.73;;;16.57;;
21611;SDS011;47005;52.292;13.452;2024-01-06T11:22:18;29.80;;;15.07;;
21611;SDS011;47005;52.292;13.452;2024-01-06T11:24:48;44.37;;;16.87;;
21611;SDS011;47005;52.292;13.452;2024-01-06T11:27:22;40.13;;;17.33;;
21611;SDS011;47005;52.292;13.452;2024-01-06T11:29:53;23.80;;;11.53;;
21611;SDS011;47005;52.292;13.452;2024-01-06T11:34:55;35.37;;;16.57;;
21611;SDS011;47005;52.292;13.452;2024-01-06T11:42:48;42.23;;;18.33;;
21611;SDS011;47005;52.292;13.452;2024-01-06T11:45:21;39.47;;;18.50;;
21611;SDS011;47005;52.292;13.452;2024-01-06T11:47:49;33.07;;;15.30;;
21611;SDS011;47005;52.292;13.452;2024-01-06T11:50:20;31.10;;;17.30;;
21611;SDS011;47005;52.292;13.452;2024-01-06T11:52:46;39.13;;;18.70;;
21611;SDS011;47005;52.292;13.452;2024-01-06T11:55:12;33.10;;;16.23;;
21611;SDS011;47005;52.292;13.452;2024-01-06T11:57:39;34.60;;;16.57;;
21611;SDS011;47005;52.292;13.452;2024-01-06T12:00:05;25.37;;;10.73;;
21611;SDS011;47005;52.292;13.452;2024-01-06T12:02:31;25.97;;;13.13;;
21611;SDS011;47005;52.292;13.452;2024-01-06T12:04:56;32.90;;;15.67;;
21611;SDS011;47005;52.292;13.452;2024-01-06T12:07:22;35.37;;;16.87;;
21611;SDS011;47005;52.292;13.452;2024-01-06T12:09:48;28.57;;;15.00;;
21611;SDS011;47005;52.292;13.452;2024-01-06T12:12:15;27.67;;;15.70;;
21611;SDS011;47005;52.292;13.452;2024-01-06T12:14:43;31.50;;;14.73;;
21611;SDS011;47005;52.292;13.452;2024-01-06T12:17:10;33.10;;;16.97;;
21611;SDS011;47005;52.292;13.452;2024-01-06T12:19:38;27.93;;;13.90;;
21611;SDS011;47005;52.292;13.452;2024-01-06T12:22:04;33.60;;;15.90;;
21611;SDS011;47005;52.292;13.452;2024-01-06T12:24:31;13.03;;;6.20;;
21611;SDS011;47005;52.292;13.452;2024-01-06T12:26:56;23.27;;;11.20;;
21611;SDS011;47005;52.292;13.452;2024-01-06T12:29:23;28.47;;;14.47;;
21611;SDS011;47005;52.292;13.452;2024-01-06T12:31:53;31.37;;;16.17;;
21611;SDS011;47005;52.292;13.452;2024-01-06T12:34:19;29.20;;;16.30;;
21611;SDS011;47005;52.292;13.452;2024-01-06T12:36:45;23.70;;;12.13;;
21611;SDS011;47005;52.292;13.452;2024-01-06T12:39:12;21.17;;;12.13;;
21611;SDS011;47005;52.292;13.452;2024-01-06T12:41:41;27.43;;;16.73;;
21611;SDS011;47005;52.292;13.452;2024-01-06T12:44:07;24.00;;;13.20;;
21611;SDS011;47005;52.292;13.452;2024-01-06T12:46:33;21.53;;;11.60;;
21611;SDS011;47005;52.292;13.452;2024-01-06T12:48:59;26.83;;;14.43;;
21611;SDS011;47005;52.292;13.452;2024-01-06T12:51:24;27.00;;;15.77;;
21611;SDS011;47005;52.292;13.452;2024-01-06T12:53:50;27.07;;;13.83;;
21611;SDS011;47005;52.292;13.452;2024-01-06T12:56:16;30.90;;;15.60;;
21611;SDS011;47005;52.292;13.452;2024-01-06T12:58:42;30.73;;;14.77;;
21611;SDS011;47005;52.292;13.452;2024-01-06T13:01:08;28.80;;;15.37;;
21611;SDS011;47005;52.292;13.452;2024-01-06T13:03:34;29.73;;;15.27;;
21611;SDS011;47005;52.292;13.452;2024-01-06T13:06:00;30.37;;;15.83;;
21611;SDS011;47005;52.292;13.452;2024-01-06T13:08:26;13.87;;;7.13;;
21611;SDS011;47005;52.292;13.452;2024-01-06T13:10:53;35.07;;;16.87;;
21611;SDS011;47005;52.292;13.452;2024-01-06T13:13:22;34.90;;;16.03;;
21611;SDS011;47005;52.292;13.452;2024-01-06T13:15:47;33.23;;;16.43;;
21611;SDS011;47005;52.292;13.452;2024-01-06T13:18:13;27.40;;;14.30;;
21611;SDS011;47005;52.292;13.452;2024-01-06T13:20:39;23.63;;;14.47;;
21611;SDS011;47005;52.292;13.452;2024-01-06T13:23:08;24.57;;;13.03;;
21611;SDS011;47005;52.292;13.452;2024-01-06T13:25:36;32.20;;;16.27;;
21611;SDS011;47005;52.292;13.452;2024-01-06T13:28:03;9.73;;;5.30;;
21611;SDS011;47005;52.292;13.452;2024-01-06T13:30:29;21.83;;;10.60;;
21611;SDS011;47005;52.292;13.452;2024-01-06T13:32:55;33.77;;;16.77;;
21611;SDS011;47005;52.292;13.452;2024-01-06T13:35:20;34.03;;;16.53;;
21611;SDS011;47005;52.292;13.452;2024-01-06T13:37:50;30.07;;;15.97;;
21611;SDS011;47005;52.292;13.452;2024-01-06T13:40:20;33.77;;;16.90;;
21611;SDS011;47005;52.292;13.452;2024-01-06T13:42:50;27.50;;;15.87;;
21611;SDS011;47005;52.292;13.452;2024-01-06T13:45:16;28.67;;;15.73;;
21611;SDS011;47005;52.292;13.452;2024-01-06T13:47:42;25.03;;;14.87;;
21611;SDS011;47005;52.292;13.452;2024-01-06T13:50:13;29.43;;;15.80;;
21611;SDS011;47005;52.292;13.452;2024-01-06T13:52:40;26.90;;;14.67;;
21611;SDS011;47005;52.292;13.452;2024-01-06T13:55:06;33.57;;;16.47;;
21611;SDS011;47005;52.292;13.452;2024-01-06T13:57:33;30.33;;;15.83;;
21611;SDS011;47005;52.292;13.452;2024-01-06T13:59:59;31.20;;;15.40;;
21611;SDS011;47005;52.292;13.452;2024-01-06T14:02:25;35.30;;;18.57;;
21611;SDS011;47005;52.292;13.452;2024-01-06T14:04:51;29.60;;;14.33;;
21611;SDS011;47005;52.292;13.452;2024-01-06T14:07:17;27.13;;;16.00;;
21611;SDS011;47005;52.292;13.452;2024-01-06T14:09:47;31.93;;;15.20;;
21611;SDS011;47005;52.292;13.452;2024-01-06T14:12:13;9.87;;;5.77;;
21611;SDS011;47005;52.292;13.452;2024-01-06T14:14:38;23.70;;;13.20;;